Time;durP1;ratioP1;P1;durP2;ratioP2;P2;SDS_P1;SDS_P2;PMS_P1;PMS_P2;Temp;Humidity;BMP_temperature;BMP_pressure;BME280_temperature;BME280_humidity;BME280_pressure;Samples;Min_cycle;Max_cycle;Signal;HPM_P1;HPM_P2
2023/04/03 00:00:38;;;;;;;6.88;1.05;;;4.10;99.90;;;;;;5000356;28;20108;-85
2023/04/03 00:03:05;;;;;;;14.30;1.98;;;4.10;99.90;;;;;;4987999;28;20057;-86
2023/04/03 00:05:31;;;;;;;5.97;1.55;;;4.00;99.90;;;;;;4998175;28;20424;-86
2023/04/03 00:07:58;;;;;;;5.30;1.20;;;4.00;99.90;;;;;;4980872;28;20038;-85
2023/04/03 00:10:25;;;;;;;7.95;1.58;;;4.00;99.90;;;;;;4997429;28;20120;-85
2023/04/03 00:12:51;;;;;;;8.63;1.42;;;4.00;99.90;;;;;;4997139;28;20039;-85
2023/04/03 00:15:18;;;;;;;4.22;1.33;;;4.00;99.90;;;;;;4982073;28;20408;-86
2023/04/03 00:17:45;;;;;;;9.85;1.60;;;3.90;99.90;;;;;;4981607;28;20042;-86
2023/04/03 00:20:12;;;;;;;4.57;1.42;;;3.90;99.90;;;;;;4996965;28;20050;-86
2023/04/03 00:22:39;;;;;;;6.70;1.38;;;3.90;99.90;;;;;;4981211;28;20046;-85
2023/04/03 00:25:05;;;;;;;4.13;1.10;;;3.80;99.90;;;;;;4997747;28;20420;-85
2023/04/03 00:27:32;;;;;;;2.85;1.08;;;3.80;99.90;;;;;;4980545;28;20560;-86
2023/04/03 00:29:59;;;;;;;5.43;1.20;;;3.80;99.90;;;;;;4981569;28;20105;-86
2023/04/03 00:32:27;;;;;;;13.90;1.50;;;3.80;99.90;;;;;;4994079;28;20050;-86
2023/04/03 00:34:53;;;;;;;12.75;1.58;;;3.70;99.90;;;;;;4981412;28;20104;-85
2023/04/03 00:37:20;;;;;;;2.65;1.08;;;3.70;99.90;;;;;;4981393;28;20400;-85
2023/04/03 00:39:47;;;;;;;5.15;1.20;;;3.70;99.90;;;;;;4996560;28;20380;-86
2023/04/03 00:42:14;;;;;;;3.85;1.30;;;3.70;99.90;;;;;;4997139;28;20050;-85
2023/04/03 00:44:43;;;;;;;12.32;2.17;;;3.60;99.90;;;;;;4997155;28;20464;-86
2023/04/03 00:47:10;;;;;;;3.28;1.33;;;3.60;99.90;;;;;;4980390;28;20047;-86
2023/04/03 00:49:37;;;;;;;9.85;1.50;;;3.60;99.90;;;;;;4997724;28;20070;-85
2023/04/03 00:52:03;;;;;;;4.88;1.20;;;3.60;99.90;;;;;;4980557;28;20042;-85
2023/04/03 00:54:30;;;;;;;5.70;1.55;;;3.50;99.90;;;;;;4979922;28;20053;-86
2023/04/03 00:56:57;;;;;;;5.00;1.30;;;3.50;99.90;;;;;;4997141;28;20650;-85
2023/04/03 00:59:26;;;;;;;6.43;1.75;;;3.50;99.90;;;;;;4979969;28;20078;-85
2023/04/03 01:01:54;;;;;;;5.05;1.33;;;3.50;99.90;;;;;;4984312;28;20468;-85
2023/04/03 01:04:22;;;;;;;8.80;1.38;;;3.40;99.90;;;;;;5033084;28;20049;-86
2023/04/03 01:06:50;;;;;;;2.58;1.17;;;3.40;99.90;;;;;;5015735;28;20050;-84
2023/04/03 01:09:16;;;;;;;6.88;1.50;;;3.40;99.90;;;;;;5033123;28;20136;-86
2023/04/03 01:11:43;;;;;;;7.88;1.58;;;3.40;99.90;;;;;;5015954;28;20041;-85
2023/04/03 01:14:10;;;;;;;13.18;1.63;;;3.30;99.90;;;;;;5032044;28;20053;-85
2023/04/03 01:16:37;;;;;;;5.20;1.50;;;3.30;99.90;;;;;;5016567;28;20064;-86
2023/04/03 01:19:03;;;;;;;10.98;1.77;;;3.20;99.90;;;;;;5015233;28;20132;-85
2023/04/03 01:21:30;;;;;;;12.90;1.67;;;3.20;99.90;;;;;;5016081;28;20049;-85
2023/04/03 01:23:57;;;;;;;2.90;1.20;;;3.20;99.90;;;;;;5017068;28;20054;-85
2023/04/03 01:26:25;;;;;;;6.22;1.63;;;3.20;99.90;;;;;;5031672;28;20058;-85
2023/04/03 01:28:52;;;;;;;12.68;2.30;;;3.10;99.90;;;;;;5032470;28;20109;-86
2023/04/03 01:31:19;;;;;;;9.40;1.83;;;3.10;99.90;;;;;;5035286;28;20522;-85
2023/04/03 01:33:47;;;;;;;6.43;1.67;;;3.10;99.90;;;;;;5034607;28;20052;-86
2023/04/03 01:36:13;;;;;;;14.60;1.50;;;3.00;99.90;;;;;;5052347;28;20042;-85
2023/04/03 01:38:41;;;;;;;7.18;1.33;;;3.00;99.90;;;;;;5052061;28;20140;-85
2023/04/03 01:41:07;;;;;;;11.65;1.83;;;3.00;99.90;;;;;;5050680;28;20149;-85
2023/04/03 01:43:34;;;;;;;10.23;1.38;;;3.00;99.90;;;;;;5052384;28;20075;-86
2023/04/03 01:46:01;;;;;;;10.80;1.65;;;2.90;99.90;;;;;;5050988;28;20344;-86
2023/04/03 01:48:28;;;;;;;2.58;1.10;;;2.90;99.90;;;;;;5035441;28;20045;-85
2023/04/03 01:50:55;;;;;;;10.13;1.67;;;2.90;99.90;;;;;;5034444;28;20057;-85
2023/04/03 01:53:22;;;;;;;4.75;1.15;;;2.80;99.90;;;;;;5034158;28;20056;-85
2023/04/03 01:55:49;;;;;;;5.10;1.92;;;2.80;99.90;;;;;;5052059;28;20038;-85
2023/04/03 01:58:15;;;;;;;9.25;1.40;;;2.70;99.90;;;;;;5051872;28;20056;-85
2023/04/03 02:00:42;;;;;;;7.63;1.50;;;2.70;99.90;;;;;;5050338;28;20099;-85
2023/04/03 02:03:10;;;;;;;5.03;1.88;;;2.70;99.90;;;;;;5020845;28;20482;-85
2023/04/03 02:05:37;;;;;;;2.50;1.08;;;2.60;99.90;;;;;;4999565;28;20049;-86
2023/04/03 02:08:04;;;;;;;8.55;1.48;;;2.60;99.90;;;;;;5014390;28;20056;-85
2023/04/03 02:10:31;;;;;;;2.58;1.10;;;2.50;99.90;;;;;;5015444;28;20065;-85
2023/04/03 02:12:58;;;;;;;9.30;1.77;;;2.50;99.90;;;;;;5014159;28;20054;-85
2023/04/03 02:15:25;;;;;;;7.10;1.55;;;2.40;99.90;;;;;;5015214;28;20048;-85
2023/04/03 02:17:52;;;;;;;5.00;1.65;;;2.40;99.90;;;;;;5014859;28;20496;-85
2023/04/03 02:20:20;;;;;;;4.82;1.40;;;2.30;99.90;;;;;;5013590;28;20479;-85
2023/04/03 02:22:46;;;;;;;7.60;1.50;;;2.30;99.90;;;;;;5014900;28;20052;-86
2023/04/03 02:25:13;;;;;;;4.10;1.35;;;2.30;99.90;;;;;;4998806;28;20049;-85
2023/04/03 02:27:40;;;;;;;3.90;1.35;;;2.20;99.90;;;;;;5013930;28;20515;-86
2023/04/03 02:30:10;;;;;;;4.05;1.58;;;2.10;99.90;;;;;;5014465;28;20133;-85
2023/04/03 02:32:37;;;;;;;7.28;1.67;;;2.10;99.90;;;;;;5013833;28;20380;-84
2023/04/03 02:35:04;;;;;;;8.07;1.85;;;2.00;99.90;;;;;;5014972;28;20042;-85
2023/04/03 02:37:31;;;;;;;3.60;1.30;;;2.00;99.90;;;;;;5014821;28;20081;-85
2023/04/03 02:39:58;;;;;;;6.40;1.98;;;2.00;99.90;;;;;;4997725;28;20542;-84
2023/04/03 02:42:27;;;;;;;10.63;1.52;;;1.90;99.90;;;;;;5014326;28;20056;-85
2023/04/03 02:44:53;;;;;;;7.68;1.30;;;1.90;99.90;;;;;;5014965;28;20447;-85
2023/04/03 02:47:21;;;;;;;5.45;1.58;;;1.80;99.90;;;;;;5013820;28;20046;-84
2023/04/03 02:49:47;;;;;;;4.10;1.85;;;1.80;99.90;;;;;;4998690;28;20052;-85
2023/04/03 02:52:14;;;;;;;7.70;1.80;;;1.80;99.90;;;;;;5014368;28;20105;-86
2023/04/03 02:54:41;;;;;;;3.95;1.42;;;1.70;99.90;;;;;;5013727;28;20128;-85
2023/04/03 02:57:09;;;;;;;6.30;1.63;;;1.70;99.90;;;;;;5015349;28;20125;-85
2023/04/03 02:59:36;;;;;;;4.22;1.50;;;1.60;99.90;;;;;;5013124;28;20057;-85
2023/04/03 03:02:03;;;;;;;11.95;1.98;;;1.60;99.90;;;;;;5012295;28;20511;-85
2023/04/03 03:04:30;;;;;;;6.85;1.90;;;1.60;99.90;;;;;;5014175;28;20070;-85
2023/04/03 03:06:57;;;;;;;4.60;1.58;;;1.60;99.90;;;;;;5013175;28;20048;-84
2023/04/03 03:09:23;;;;;;;3.17;1.05;;;1.60;99.90;;;;;;5014178;28;20049;-85
2023/04/03 03:11:50;;;;;;;3.35;1.50;;;1.60;99.90;;;;;;5013726;28;20052;-85
2023/04/03 03:14:17;;;;;;;9.15;1.40;;;1.50;99.90;;;;;;5013335;28;20092;-84
2023/04/03 03:16:44;;;;;;;10.15;1.40;;;1.50;99.90;;;;;;5014214;28;20092;-84
2023/04/03 03:19:10;;;;;;;7.70;1.73;;;1.50;99.90;;;;;;5013091;28;20053;-85
2023/04/03 03:21:37;;;;;;;8.18;1.83;;;1.50;99.90;;;;;;5013759;28;20054;-85
2023/04/03 03:24:04;;;;;;;2.75;1.00;;;1.40;99.90;;;;;;5030422;28;20046;-85
2023/04/03 03:26:32;;;;;;;4.35;1.63;;;1.40;99.90;;;;;;5013077;28;20042;-85
2023/04/03 03:29:01;;;;;;;7.07;1.30;;;1.30;99.90;;;;;;5014000;28;20095;-84
2023/04/03 03:31:28;;;;;;;2.88;1.25;;;1.30;99.90;;;;;;5013581;28;20349;-84
2023/04/03 03:33:56;;;;;;;4.60;1.38;;;1.30;99.90;;;;;;5013052;28;20042;-85
2023/04/03 03:36:23;;;;;;;5.40;1.85;;;1.20;99.90;;;;;;5013127;28;20053;-85
2023/04/03 03:38:49;;;;;;;12.50;1.40;;;1.30;99.90;;;;;;5013676;28;20068;-84
2023/04/03 03:41:16;;;;;;;7.35;1.55;;;1.20;99.90;;;;;;5029104;28;20137;-85
2023/04/03 03:43:44;;;;;;;4.93;1.55;;;1.30;99.90;;;;;;5014519;28;20073;-85
2023/04/03 03:46:12;;;;;;;4.70;1.67;;;1.20;99.90;;;;;;5012661;28;20046;-85
2023/04/03 03:48:39;;;;;;;5.63;1.63;;;1.20;99.90;;;;;;5013662;28;20069;-84
2023/04/03 03:51:06;;;;;;;4.70;1.45;;;1.20;99.90;;;;;;5013396;28;20052;-85
2023/04/03 03:53:36;;;;;;;3.42;1.30;;;1.20;99.90;;;;;;5012522;28;20037;-84
2023/04/03 03:56:06;;;;;;;4.47;1.60;;;1.20;99.90;;;;;;5030225;28;20384;-84
2023/04/03 03:58:35;;;;;;;5.93;1.60;;;1.20;99.90;;;;;;5013931;28;20057;-84
2023/04/03 04:01:02;;;;;;;9.15;1.55;;;1.30;99.90;;;;;;5012363;28;20464;-84
2023/04/03 04:03:29;;;;;;;6.53;1.60;;;1.30;99.90;;;;;;5013442;28;20077;-84
2023/04/03 04:05:56;;;;;;;3.45;1.35;;;1.30;99.90;;;;;;5012805;28;20050;-84
2023/04/03 04:08:23;;;;;;;7.75;1.92;;;1.40;99.90;;;;;;5014482;28;20042;-84
2023/04/03 04:10:50;;;;;;;4.25;1.48;;;1.40;99.90;;;;;;5013241;28;20144;-84
2023/04/03 04:13:17;;;;;;;4.75;1.77;;;1.50;99.90;;;;;;5014242;28;20046;-84
2023/04/03 04:15:44;;;;;;;5.93;1.52;;;1.50;99.90;;;;;;5017631;28;20033;-85
2023/04/03 04:18:13;;;;;;;3.25;1.40;;;1.60;99.90;;;;;;5017175;28;20049;-85
2023/04/03 04:20:42;;;;;;;6.53;1.63;;;1.70;99.90;;;;;;5015822;28;20046;-84
2023/04/03 04:23:09;;;;;;;7.57;2.38;;;1.60;99.90;;;;;;5017036;28;20046;-85
2023/04/03 04:25:36;;;;;;;7.97;1.75;;;1.70;99.90;;;;;;5016635;28;20046;-84
2023/04/03 04:28:05;;;;;;;4.80;1.42;;;1.80;99.90;;;;;;5016285;28;20042;-84
2023/04/03 04:30:31;;;;;;;12.52;1.83;;;1.70;99.90;;;;;;5016597;28;20132;-84
2023/04/03 04:32:58;;;;;;;9.02;1.55;;;1.70;99.90;;;;;;4999797;28;20041;-85
2023/04/03 04:35:26;;;;;;;8.45;1.58;;;1.70;99.90;;;;;;5017059;28;20044;-84
2023/04/03 04:37:53;;;;;;;5.72;1.75;;;1.70;99.90;;;;;;5017011;28;20137;-84
2023/04/03 04:40:20;;;;;;;4.57;1.50;;;1.70;99.90;;;;;;4999430;28;20050;-85
2023/04/03 04:42:47;;;;;;;4.70;1.60;;;1.70;99.90;;;;;;5016802;28;20388;-85
2023/04/03 04:45:14;;;;;;;6.28;1.85;;;1.70;99.90;;;;;;5016710;28;20050;-84
2023/04/03 04:47:43;;;;;;;12.02;1.90;;;1.70;99.90;;;;;;5015443;28;20046;-84
2023/04/03 04:50:11;;;;;;;7.40;1.67;;;1.70;99.90;;;;;;4999771;28;20528;-85
2023/04/03 04:52:38;;;;;;;4.82;1.77;;;1.70;99.90;;;;;;4999356;28;20046;-84
2023/04/03 04:55:06;;;;;;;8.80;1.83;;;1.80;99.90;;;;;;5000640;28;20099;-85
2023/04/03 04:57:34;;;;;;;5.60;1.70;;;1.80;99.90;;;;;;5000374;28;20046;-85
2023/04/03 05:00:02;;;;;;;9.05;1.73;;;1.90;99.90;;;;;;5015111;28;20476;-85
2023/04/03 05:02:30;;;;;;;8.15;1.90;;;2.00;99.90;;;;;;5016258;28;20489;-84
2023/04/03 05:04:56;;;;;;;8.20;2.40;;;2.00;99.90;;;;;;5016161;28;20050;-85
2023/04/03 05:07:27;;;;;;;5.60;1.50;;;2.10;99.90;;;;;;5015152;28;20042;-84
2023/04/03 05:09:54;;;;;;;9.13;1.65;;;2.10;99.90;;;;;;5015869;28;20038;-84
2023/04/03 05:12:23;;;;;;;8.82;1.90;;;2.20;99.90;;;;;;5015553;28;20409;-85
2023/04/03 05:14:54;;;;;;;6.13;1.85;;;2.20;99.90;;;;;;5016528;28;20072;-85
2023/04/03 05:17:22;;;;;;;5.32;1.77;;;2.30;99.90;;;;;;5016164;28;20127;-84
2023/04/03 05:19:52;;;;;;;6.63;1.88;;;2.30;99.90;;;;;;5014747;28;20369;-85
2023/04/03 05:22:21;;;;;;;7.05;2.47;;;2.40;99.90;;;;;;5015725;28;20358;-85
2023/04/03 05:24:50;;;;;;;13.70;2.17;;;2.40;99.90;;;;;;5015097;28;20119;-85
2023/04/03 05:27:18;;;;;;;7.68;1.98;;;2.30;99.90;;;;;;5015202;28;20072;-84
2023/04/03 05:29:50;;;;;;;12.95;1.98;;;2.40;99.90;;;;;;5015877;28;20487;-84
2023/04/03 05:32:20;;;;;;;4.90;1.77;;;2.40;99.90;;;;;;5015835;28;20050;-85
2023/04/03 05:34:51;;;;;;;5.90;1.70;;;2.50;99.90;;;;;;5015872;28;20112;-85
2023/04/03 05:37:19;;;;;;;6.50;1.70;;;2.50;99.90;;;;;;5015626;28;20065;-84
2023/04/03 05:39:46;;;;;;;9.80;2.13;;;2.60;99.90;;;;;;5014700;28;20053;-85
2023/04/03 05:42:13;;;;;;;5.97;2.10;;;2.60;99.90;;;;;;5015649;28;20046;-84
2023/04/03 05:44:40;;;;;;;6.40;2.00;;;2.60;99.90;;;;;;5015528;28;20045;-84
2023/04/03 05:47:07;;;;;;;9.80;2.17;;;2.70;99.90;;;;;;5014513;28;20484;-84
2023/04/03 05:49:34;;;;;;;19.52;2.75;;;2.70;99.90;;;;;;5031873;28;20053;-84
2023/04/03 05:52:01;;;;;;;11.45;2.05;;;2.80;99.90;;;;;;5014986;28;20046;-84
2023/04/03 05:54:30;;;;;;;5.47;1.80;;;2.80;99.90;;;;;;5030474;28;20054;-84
2023/04/03 05:57:06;;;;;;;6.63;1.95;;;2.80;99.90;;;;;;5030540;28;20534;-84
2023/04/03 05:59:33;;;;;;;5.72;1.77;;;2.90;99.90;;;;;;5014209;28;20137;-84
2023/04/03 06:02:01;;;;;;;5.82;2.08;;;2.90;99.90;;;;;;5014133;28;20092;-85
2023/04/03 06:04:28;;;;;;;8.20;2.30;;;3.00;99.90;;;;;;5014628;28;20104;-85
2023/04/03 06:06:54;;;;;;;9.63;2.28;;;3.00;99.90;;;;;;5016480;28;20052;-84
2023/04/03 06:09:21;;;;;;;7.93;2.22;;;3.00;99.90;;;;;;4998669;28;20057;-84
2023/04/03 06:11:48;;;;;;;8.43;2.13;;;3.00;99.90;;;;;;5014710;28;20072;-85
2023/04/03 06:14:16;;;;;;;15.48;2.63;;;3.00;99.90;;;;;;5014136;28;20042;-85
2023/04/03 06:16:43;;;;;;;7.03;2.38;;;3.00;99.90;;;;;;5015258;28;20096;-85
2023/04/03 06:19:10;;;;;;;8.52;2.25;;;3.00;99.90;;;;;;5014026;28;20447;-85
2023/04/03 06:21:41;;;;;;;9.57;1.92;;;3.00;99.90;;;;;;5014623;28;20113;-84
2023/04/03 06:24:08;;;;;;;4.63;1.73;;;3.00;99.90;;;;;;5015382;28;20419;-85
2023/04/03 06:26:34;;;;;;;7.97;2.28;;;3.00;99.90;;;;;;5014086;28;20060;-85
2023/04/03 06:29:02;;;;;;;6.88;2.30;;;3.10;99.90;;;;;;5014933;28;20607;-85
2023/04/03 06:31:28;;;;;;;7.88;2.25;;;3.10;99.90;;;;;;5014381;28;20042;-85
2023/04/03 06:33:56;;;;;;;6.60;2.03;;;3.20;99.90;;;;;;5013555;28;20069;-84
2023/04/03 06:36:23;;;;;;;15.05;2.38;;;3.30;99.90;;;;;;5014430;28;20038;-84
2023/04/03 06:38:50;;;;;;;7.03;2.08;;;3.30;99.90;;;;;;5014439;28;20141;-85
2023/04/03 06:41:17;;;;;;;10.60;2.47;;;3.30;99.90;;;;;;5013307;28;20111;-84
2023/04/03 06:43:43;;;;;;;11.07;2.60;;;3.50;99.90;;;;;;5014636;28;20057;-84
2023/04/03 06:46:10;;;;;;;12.48;2.50;;;3.60;99.90;;;;;;5013544;28;20468;-85
2023/04/03 06:48:37;;;;;;;12.35;2.88;;;3.60;99.90;;;;;;5014376;28;20065;-85
2023/04/03 06:51:03;;;;;;;10.65;2.50;;;3.70;99.90;;;;;;5006846;28;20049;-84
2023/04/03 06:53:31;;;;;;;10.02;2.45;;;3.80;99.90;;;;;;4977522;28;20141;-84
2023/04/03 06:55:58;;;;;;;13.73;2.45;;;3.90;99.90;;;;;;4994042;28;20133;-84
2023/04/03 06:58:24;;;;;;;7.22;2.50;;;4.00;99.90;;;;;;4994671;28;20088;-84
2023/04/03 07:00:51;;;;;;;7.97;2.47;;;4.20;99.90;;;;;;4993112;28;20495;-84
2023/04/03 07:03:18;;;;;;;13.65;2.38;;;4.50;99.90;;;;;;5009854;28;20038;-83
2023/04/03 07:05:45;;;;;;;6.85;2.10;;;4.70;99.90;;;;;;5013933;28;20041;-85
2023/04/03 07:08:12;;;;;;;13.40;2.75;;;4.80;99.90;;;;;;5030555;28;20073;-85
2023/04/03 07:10:38;;;;;;;6.30;2.50;;;4.90;99.90;;;;;;5013757;28;20112;-84
2023/04/03 07:13:05;;;;;;;9.90;3.20;;;5.00;99.90;;;;;;5013054;28;20042;-83
2023/04/03 07:15:33;;;;;;;11.82;2.92;;;5.00;99.90;;;;;;5014915;28;20080;-84
2023/04/03 07:18:00;;;;;;;9.25;2.40;;;5.10;99.90;;;;;;5014623;28;20432;-85
2023/04/03 07:20:27;;;;;;;7.32;2.30;;;5.20;99.90;;;;;;5012635;28;20042;-85
2023/04/03 07:22:54;;;;;;;13.20;2.63;;;5.40;99.90;;;;;;5030240;28;20053;-85
2023/04/03 07:25:21;;;;;;;8.50;2.63;;;5.40;99.90;;;;;;5014008;28;20132;-83
2023/04/03 07:27:49;;;;;;;13.63;2.97;;;5.40;99.90;;;;;;5029460;28;20412;-85
2023/04/03 07:30:15;;;;;;;9.32;3.03;;;5.40;99.90;;;;;;5013593;28;20049;-85
2023/04/03 07:32:42;;;;;;;11.45;2.88;;;5.40;99.90;;;;;;5013019;28;20265;-85
2023/04/03 07:35:09;;;;;;;7.57;2.60;;;5.50;99.90;;;;;;5013939;28;20357;-85
2023/04/03 07:37:36;;;;;;;9.75;2.50;;;5.60;99.90;;;;;;5013745;28;20061;-85
2023/04/03 07:40:04;;;;;;;12.75;2.92;;;6.00;99.90;;;;;;5012589;28;20053;-85
2023/04/03 07:42:31;;;;;;;11.48;2.42;;;6.30;99.90;;;;;;5013809;28;20050;-84
2023/04/03 07:44:58;;;;;;;12.20;2.97;;;6.50;99.90;;;;;;5029893;28;20045;-85
2023/04/03 07:47:25;;;;;;;10.07;3.45;;;6.60;99.90;;;;;;5029590;28;20472;-85
2023/04/03 07:49:51;;;;;;;13.55;3.53;;;6.80;99.90;;;;;;5017287;28;20076;-85
2023/04/03 07:52:18;;;;;;;10.27;2.67;;;6.90;99.90;;;;;;5017566;28;20137;-86
2023/04/03 07:54:45;;;;;;;13.13;3.10;;;7.00;99.90;;;;;;5016532;28;20456;-85
2023/04/03 07:57:11;;;;;;;9.27;2.63;;;7.10;99.90;;;;;;5017483;28;20453;-84
2023/04/03 07:59:39;;;;;;;11.43;3.20;;;7.20;99.90;;;;;;5015774;28;20042;-83
2023/04/03 08:02:06;;;;;;;16.33;4.32;;;7.30;99.90;;;;;;5017107;28;20060;-84
2023/04/03 08:04:33;;;;;;;10.45;3.10;;;7.40;99.90;;;;;;5017306;28;20384;-85
2023/04/03 08:07:00;;;;;;;14.60;3.17;;;7.40;99.90;;;;;;5016590;28;20395;-84
2023/04/03 08:09:27;;;;;;;13.15;3.45;;;7.60;99.90;;;;;;5029735;28;20061;-87
2023/04/03 08:12:11;;;;;;;11.77;3.15;;;7.60;99.90;;;;;;5013540;28;20058;-82
2023/04/03 08:14:43;;;;;;;12.02;3.70;;;7.80;99.90;;;;;;5012358;28;20044;-85
2023/04/03 08:17:14;;;;;;;13.07;3.53;;;7.90;99.90;;;;;;5002705;28;20543;-84
2023/04/03 08:20:11;;;;;;;13.63;4.20;;;8.00;99.90;;;;;;5030400;28;20041;-85
2023/04/03 08:22:48;;;;;;;12.07;3.88;;;8.10;99.90;;;;;;5021414;28;20053;-84
2023/04/03 08:25:15;;;;;;;16.58;3.60;;;8.30;99.90;;;;;;5036596;28;20053;-85
2023/04/03 08:27:42;;;;;;;12.85;3.47;;;8.40;99.90;;;;;;5036008;28;20091;-88
2023/04/03 08:30:08;;;;;;;11.65;4.35;;;8.60;99.90;;;;;;5037423;28;20037;-88
2023/04/03 08:32:35;;;;;;;11.93;3.58;;;8.70;99.90;;;;;;5020583;28;20042;-88
2023/04/03 08:35:03;;;;;;;9.52;3.50;;;8.90;99.90;;;;;;5020956;28;20050;-87
2023/04/03 08:37:30;;;;;;;16.33;3.78;;;9.10;99.90;;;;;;5012766;28;20133;-89
2023/04/03 08:39:59;;;;;;;14.98;4.85;;;9.10;99.90;;;;;;5015209;28;20046;-88
2023/04/03 08:42:25;;;;;;;13.75;3.25;;;9.20;99.90;;;;;;5003108;28;20050;-87
2023/04/03 08:47:38;;;;;;;12.35;3.90;;;9.40;99.90;;;;;;5009769;28;20050;-88
2023/04/03 08:50:05;;;;;;;13.68;4.40;;;9.60;99.90;;;;;;4984459;28;20034;-88
2023/04/03 08:52:31;;;;;;;14.88;3.88;;;9.60;99.90;;;;;;4996976;28;20077;-89
2023/04/03 08:57:45;;;;;;;18.00;4.45;;;9.90;99.90;;;;;;5033964;28;20046;-90
2023/04/03 09:00:12;;;;;;;18.80;4.85;;;10.10;99.90;;;;;;5014895;28;20361;-90
2023/04/03 09:02:38;;;;;;;13.43;4.85;;;10.20;99.90;;;;;;4997081;28;20070;-89
2023/04/03 09:08:34;;;;;;;12.98;4.90;;;10.40;99.90;;;;;;4998044;28;20158;-89
2023/04/03 09:11:04;;;;;;;18.42;5.35;;;10.60;99.90;;;;;;4996722;28;20054;-88
2023/04/03 09:13:38;;;;;;;13.00;4.55;;;10.50;99.90;;;;;;5012381;28;20077;-86
2023/04/03 09:16:05;;;;;;;15.05;4.75;;;10.60;99.90;;;;;;5004297;28;20052;-86
2023/04/03 09:18:32;;;;;;;14.85;4.88;;;10.60;99.90;;;;;;5016110;28;20076;-90
2023/04/03 09:21:06;;;;;;;14.02;4.68;;;10.50;99.90;;;;;;5015513;28;20049;-89
2023/04/03 09:26:36;;;;;;;14.82;5.35;;;10.70;99.90;;;;;;5032524;28;20038;-89
2023/04/03 09:29:06;;;;;;;16.73;5.35;;;10.80;99.90;;;;;;5033164;28;20463;-89
2023/04/03 09:31:32;;;;;;;11.73;5.13;;;11.10;99.90;;;;;;5032503;28;20387;-89
2023/04/03 09:37:36;;;;;;;13.98;5.05;;;11.00;99.90;;;;;;5017327;28;20036;-89
2023/04/03 09:40:05;;;;;;;14.05;5.32;;;11.30;99.90;;;;;;5032077;28;20464;-90
2023/04/03 09:42:32;;;;;;;15.68;5.28;;;11.30;99.90;;;;;;5032291;28;20056;-88
2023/04/03 09:48:11;;;;;;;14.85;5.25;;;11.20;99.90;;;;;;5032630;28;20080;-89
2023/04/03 09:50:42;;;;;;;15.82;5.43;;;11.30;99.90;;;;;;5032829;28;20100;-89
2023/04/03 09:53:10;;;;;;;15.70;5.40;;;11.20;99.90;;;;;;5032328;28;20046;-88
2023/04/03 09:56:21;;;;;;;18.23;5.05;;;11.10;99.90;;;;;;5011565;28;20502;-87
2023/04/03 09:59:08;;;;;;;13.02;4.72;;;11.20;99.90;;;;;;4988916;28;20096;-88
2023/04/03 10:01:49;;;;;;;13.55;5.00;;;11.20;99.90;;;;;;5008840;28;20046;-88
2023/04/03 10:04:17;;;;;;;17.15;5.32;;;11.30;99.90;;;;;;4996860;28;20058;-87
2023/04/03 10:06:46;;;;;;;16.80;4.80;;;11.30;99.90;;;;;;5011948;28;20042;-86
2023/04/03 10:09:24;;;;;;;15.80;5.07;;;11.40;99.90;;;;;;4996669;28;20046;-87
2023/04/03 10:11:54;;;;;;;15.98;5.28;;;11.40;99.90;;;;;;4995422;28;20050;-87
2023/04/03 10:17:27;;;;;;;14.98;4.47;;;11.30;99.90;;;;;;5010506;28;20137;-86
2023/04/03 10:19:56;;;;;;;10.38;4.60;;;11.40;99.90;;;;;;4995503;28;20066;-88
2023/04/03 10:22:33;;;;;;;12.60;4.85;;;11.30;99.90;;;;;;4980363;28;20068;-86
2023/04/03 10:25:03;;;;;;;13.57;4.15;;;11.30;99.90;;;;;;4995355;28;20074;-86
2023/04/03 10:27:30;;;;;;;11.40;4.97;;;11.30;99.90;;;;;;4995231;28;20145;-87
2023/04/03 10:29:58;;;;;;;12.02;4.55;;;11.30;99.90;;;;;;5004498;28;20100;-89
2023/04/03 10:33:12;;;;;;;15.95;4.53;;;11.30;99.90;;;;;;4955028;28;20055;-88
2023/04/03 10:35:42;;;;;;;;;;;11.30;99.90;;;;;;4940562;29;20051;-87
2023/04/03 10:38:09;;;;;;;11.95;4.50;;;11.40;99.90;;;;;;4939967;29;19962;-88
2023/04/03 10:40:45;;;;;;;15.30;4.22;;;11.30;99.90;;;;;;4939756;29;20063;-89
2023/04/03 10:43:14;;;;;;;9.50;4.13;;;11.20;99.90;;;;;;4940776;29;20059;-91
2023/04/03 10:45:44;;;;;;;10.98;3.88;;;11.20;99.90;;;;;;4940624;29;20051;-89
2023/04/03 10:48:11;;;;;;;10.60;4.05;;;11.20;99.90;;;;;;4925916;29;20501;-87
2023/04/03 10:50:39;;;;;;;12.18;4.13;;;11.20;99.90;;;;;;4939385;29;20138;-86
2023/04/03 10:53:07;;;;;;;13.98;4.32;;;11.20;99.90;;;;;;4939057;29;20051;-86
2023/04/03 10:56:15;;;;;;;8.75;3.97;;;11.20;99.90;;;;;;4941025;29;20074;-90
2023/04/03 10:58:27;;;;;;;10.80;4.10;;;11.10;99.90;;;;;;5015326;28;20056;-89
2023/04/03 11:00:54;;;;;;;21.05;4.30;;;11.10;99.90;;;;;;4999491;28;20491;-90
2023/04/03 11:06:12;;;;;;;9.98;4.15;;;11.40;99.90;;;;;;5015505;28;20050;-91
2023/04/03 11:09:37;;;;;;;9.95;3.70;;;11.40;99.90;;;;;;5001854;28;20042;-92
2023/04/03 11:12:36;;;;;;;7.30;3.55;;;11.60;99.90;;;;;;5012594;28;20099;-89
2023/04/03 11:15:05;;;;;;;10.18;3.97;;;12.10;99.90;;;;;;5014347;28;20361;-89
2023/04/03 11:17:32;;;;;;;8.98;3.83;;;12.20;99.90;;;;;;5000822;28;20049;-87
2023/04/03 11:20:00;;;;;;;8.73;4.28;;;12.20;99.90;;;;;;5000479;28;20441;-91
2023/04/03 11:22:35;;;;;;;9.93;4.00;;;12.40;99.90;;;;;;4993706;28;20061;-89
2023/04/03 11:25:02;;;;;;;9.85;3.53;;;12.30;99.90;;;;;;4992524;28;20062;-91
2023/04/03 11:27:30;;;;;;;8.25;3.67;;;12.20;99.90;;;;;;4978978;28;20104;-89
2023/04/03 11:37:02;;;;;;;13.50;3.63;;;13.30;99.90;;;;;;4954964;28;20070;-92
2023/04/03 11:43:21;;;;;;;9.15;3.53;;;13.30;99.90;;;;;;4972213;28;20471;-89
2023/04/03 11:53:36;;;;;;;11.63;3.55;;;14.00;99.90;;;;;;4913263;29;20144;-89
2023/04/03 11:56:36;;;;;;;7.05;3.35;;;14.50;99.90;;;;;;4821721;29;20470;-89
2023/04/03 12:06:37;;;;;;;10.40;3.38;;;15.40;94.50;;;;;;4782903;29;20156;-88
2023/04/03 12:13:48;;;;;;;;;;;;;;;;;;;;;
2023/04/03 12:23:54;;;;;;;8.25;4.00;;;16.50;90.50;;;;;;4859919;29;20066;-93
2023/04/03 12:26:25;;;;;;;7.65;3.70;;;16.40;87.90;;;;;;4859039;29;20059;-91
2023/04/03 12:29:35;;;;;;;10.88;4.07;;;16.30;87.20;;;;;;4858271;29;20049;-90
2023/04/03 12:57:46;;;;;;;10.65;3.92;;;17.70;74.70;;;;;;4978839;28;20039;-89
2023/04/03 13:01:10;;;;;;;7.32;3.20;;;17.80;75.80;;;;;;4977571;28;20105;-90
2023/04/03 13:04:14;;;;;;;6.95;3.10;;;18.00;72.00;;;;;;4975556;28;20039;-89
2023/04/03 13:06:56;;;;;;;12.40;3.70;;;18.20;74.30;;;;;;4961102;28;20054;-90
2023/04/03 13:09:46;;;;;;;9.00;3.17;;;18.50;74.30;;;;;;4988149;28;20137;-88
2023/04/03 13:13:06;;;;;;;8.68;2.70;;;19.00;73.20;;;;;;4987214;28;20050;-89
2023/04/03 13:16:55;;;;;;;9.07;2.92;;;19.10;69.60;;;;;;4969842;28;20042;-89
2023/04/03 13:20:03;;;;;;;7.88;2.80;;;19.10;70.20;;;;;;4994999;28;20078;-90
2023/04/03 13:33:39;;;;;;;7.28;2.75;;;19.10;67.30;;;;;;4806572;29;20055;-89
2023/04/03 13:40:07;;;;;;;9.73;2.90;;;18.40;70.10;;;;;;4764107;29;20062;-88
2023/04/03 13:49:43;;;;;;;9.35;3.40;;;19.50;66.90;;;;;;4825992;29;20046;-88
2023/04/03 13:53:03;;;;;;;8.27;2.90;;;19.50;67.20;;;;;;4852146;29;20038;-89
2023/04/03 13:55:49;;;;;;;9.20;2.97;;;19.90;67.50;;;;;;4843677;29;20140;-90
2023/04/03 13:58:50;;;;;;;9.60;3.13;;;20.10;66.40;;;;;;4822576;29;20147;-90
2023/04/03 14:01:34;;;;;;;6.45;3.00;;;20.30;66.60;;;;;;4863973;29;20053;-89
2023/04/03 14:04:09;;;;;;;7.47;3.05;;;20.10;64.40;;;;;;4862370;29;20480;-89
2023/04/03 14:07:38;;;;;;;6.50;3.00;;;19.70;65.40;;;;;;4868419;29;20599;-89
2023/04/03 14:10:31;;;;;;;8.52;3.30;;;19.70;66.20;;;;;;4919257;29;20138;-89
2023/04/03 14:13:43;;;;;;;9.10;3.10;;;19.80;67.70;;;;;;4917454;29;20063;-89
2023/04/03 14:20:04;;;;;;;9.90;3.17;;;19.90;64.30;;;;;;4876615;29;20056;-89
2023/04/03 14:23:07;;;;;;;8.40;3.30;;;19.80;64.50;;;;;;4882504;29;20066;-90
2023/04/03 14:26:13;;;;;;;7.90;3.40;;;19.90;65.60;;;;;;4887800;29;20067;-89
2023/04/03 14:42:54;;;;;;;8.32;3.97;;;20.10;64.70;;;;;;4874715;29;20049;-91
2023/04/03 14:45:27;;;;;;;7.82;4.28;;;19.80;64.90;;;;;;4866050;29;20117;-89
2023/04/03 14:47:56;;;;;;;9.35;4.72;;;19.80;66.20;;;;;;4848273;29;20045;-89
2023/04/03 14:50:24;;;;;;;7.80;4.22;;;19.80;65.20;;;;;;4866257;29;20123;-89
2023/04/03 14:52:51;;;;;;;7.43;4.28;;;19.80;66.60;;;;;;4882766;29;20044;-89
2023/04/03 14:59:04;;;;;;;10.02;4.20;;;19.40;64.60;;;;;;4898955;29;20041;-89
2023/04/03 15:01:36;;;;;;;9.88;4.45;;;19.50;64.10;;;;;;4900566;29;20048;-89
2023/04/03 15:04:06;;;;;;;11.15;4.05;;;19.80;64.70;;;;;;4968214;28;20065;-90
2023/04/03 15:06:36;;;;;;;10.35;4.32;;;19.90;64.10;;;;;;4960290;28;20421;-89
2023/04/03 15:09:18;;;;;;;10.20;4.20;;;20.00;65.20;;;;;;4972497;28;20043;-88
2023/04/03 15:11:45;;;;;;;10.25;4.60;;;19.70;62.90;;;;;;4979091;28;20493;-88
2023/04/03 15:17:36;;;;;;;8.93;4.63;;;19.50;62.90;;;;;;4995276;28;20031;-89
2023/04/03 15:20:08;;;;;;;9.77;4.75;;;19.30;63.10;;;;;;4994441;28;20112;-88
2023/04/03 15:22:48;;;;;;;8.95;4.30;;;19.50;63.40;;;;;;4995247;28;20129;-89
2023/04/03 15:25:19;;;;;;;9.95;3.63;;;19.60;62.80;;;;;;4995809;28;20050;-90
2023/04/03 15:27:59;;;;;;;;;;;;;;;;;;;;;